Time;durP1;ratioP1;P1;durP2;ratioP2;P2;SDS_P1;SDS_P2;PMS_P1;PMS_P2;Temp;Humidity;BMP_temperature;BMP_pressure;BME280_temperature;BME280_humidity;BME280_pressure;Samples;Min_cycle;Max_cycle;Signal;HPM_P1;HPM_P2
2022/01/20 00:02:27;;;;;;;8.60;1.73;;;;;;;4.17;100.00;101914.53;5021594;28;20421;-76
2022/01/20 00:05:07;;;;;;;9.27;1.67;;;;;;;4.36;100.00;101975.72;5037050;28;20429;-77
2022/01/20 00:07:45;;;;;;;7.70;2.13;;;;;;;4.16;100.00;101955.31;5036824;28;20441;-75
2022/01/20 00:26:28;;;;;;;4.93;1.40;;;;;;;4.20;100.00;101965.56;5038012;28;20933;-76
2022/01/20 00:28:58;;;;;;;11.37;1.80;;;;;;;4.24;100.00;101959.00;5033305;28;20416;-76
2022/01/20 00:31:37;;;;;;;8.20;1.80;;;;;;;4.42;100.00;101974.34;5040721;28;20422;-76
2022/01/20 00:39:22;;;;;;;7.40;1.23;;;;;;;4.71;100.00;101988.63;5036809;28;20898;-75
2022/01/20 00:41:47;;;;;;;11.23;1.90;;;;;;;4.43;100.00;101963.59;5036147;28;20422;-76
2022/01/20 00:44:13;;;;;;;5.90;1.60;;;;;;;4.69;100.00;101985.28;5036785;28;20180;-76
2022/01/20 00:46:38;;;;;;;5.60;1.30;;;;;;;4.13;100.00;101932.50;5038652;28;20204;-76
2022/01/20 00:49:03;;;;;;;7.47;1.90;;;;;;;4.01;100.00;101885.75;5020328;28;20234;-76
2022/01/20 00:51:29;;;;;;;8.60;2.00;;;;;;;3.88;100.00;101867.41;5036681;28;20219;-75
2022/01/20 00:53:54;;;;;;;4.90;1.70;;;;;;;3.24;100.00;101796.72;5037234;28;20191;-75
2022/01/20 00:56:20;;;;;;;7.00;1.43;;;;;;;4.08;100.00;101900.22;5033815;28;20268;-76
2022/01/20 00:58:45;;;;;;;9.03;1.60;;;;;;;4.66;100.00;101993.53;5037145;28;20214;-76
2022/01/20 01:01:11;;;;;;;8.93;2.57;;;;;;;4.26;100.00;101945.59;5035030;28;20233;-76
2022/01/20 01:03:36;;;;;;;11.77;1.80;;;;;;;4.16;100.00;101921.63;5036843;28;20180;-75
2022/01/20 01:08:27;;;;;;;17.37;2.40;;;;;;;4.20;100.00;101915.09;5035237;28;20203;-76
2022/01/20 01:10:53;;;;;;;12.87;2.10;;;;;;;4.77;100.00;102005.88;5035019;28;20192;-76
2022/01/20 01:13:20;;;;;;;6.30;1.70;;;;;;;4.11;100.00;101861.91;5036127;28;20184;-77
2022/01/20 01:15:48;;;;;;;14.00;2.03;;;;;;;3.94;100.00;101874.00;5035020;28;20222;-76
2022/01/20 01:23:32;;;;;;;12.80;2.43;;;;;;;4.44;100.00;101959.13;5037618;28;20911;-76
2022/01/20 01:25:58;;;;;;;14.13;2.00;;;;;;;4.15;100.00;101916.47;5034173;28;20455;-76
2022/01/20 01:28:27;;;;;;;9.10;1.73;;;;;;;4.43;100.00;101968.91;5035502;28;20512;-76
2022/01/20 01:33:36;;;;;;;3.90;1.20;;;;;;;4.49;100.00;101954.28;5035095;28;20411;-76
2022/01/20 01:36:04;;;;;;;7.00;1.20;;;;;;;4.81;100.00;102022.41;5037503;28;20430;-76
2022/01/20 01:38:36;;;;;;;4.43;1.33;;;;;;;4.87;100.00;102019.22;5035912;28;20505;-76
2022/01/20 01:41:13;;;;;;;7.87;1.30;;;;;;;4.26;100.00;101950.91;5035784;28;20420;-75
2022/01/20 01:43:42;;;;;;;4.80;1.07;;;;;;;4.59;100.00;102052.63;5035066;28;20449;-77
2022/01/20 01:46:09;;;;;;;4.10;1.00;;;;;;;4.30;100.00;102062.06;5032855;28;20438;-76
2022/01/20 01:48:35;;;;;;;5.17;1.20;;;;;;;3.39;100.00;101951.91;5037770;28;20442;-77
2022/01/20 01:51:00;;;;;;;5.57;1.07;;;;;;;4.01;100.00;102029.13;5034950;28;20427;-77
2022/01/20 01:53:27;;;;;;;5.60;1.17;;;;;;;3.34;100.00;101948.78;5022429;28;20184;-77
2022/01/20 01:55:53;;;;;;;8.27;1.87;;;;;;;3.85;100.00;102026.91;5037553;28;20218;-77
2022/01/20 01:58:19;;;;;;;8.67;2.70;;;;;;;3.24;100.00;101952.28;5035871;28;20961;-76
2022/01/20 02:00:44;;;;;;;6.07;1.83;;;;;;;3.15;100.00;101928.22;5036792;28;20477;-76
2022/01/20 02:03:13;;;;;;;11.50;2.10;;;;;;;3.33;100.00;101936.50;5033640;28;20227;-76
2022/01/20 02:05:51;;;;;;;10.80;1.50;;;;;;;3.76;100.00;102012.56;5038695;28;20265;-77
2022/01/20 02:19:15;;;;;;;8.67;2.20;;;;;;;3.81;100.00;102042.22;5038550;28;20476;-76
2022/01/20 02:21:56;;;;;;;6.83;1.90;;;;;;;3.86;100.00;102017.97;5036909;28;20930;-76
2022/01/20 02:24:22;;;;;;;6.20;1.97;;;;;;;3.57;100.00;101954.03;5036745;28;20425;-76
2022/01/20 02:26:47;;;;;;;11.10;2.63;;;;;;;3.81;100.00;102018.31;5035998;28;20457;-77
2022/01/20 02:29:14;;;;;;;12.70;2.97;;;;;;;4.06;100.00;102054.34;5040015;28;20191;-76
2022/01/20 02:31:39;;;;;;;13.10;2.90;;;;;;;3.07;100.00;101924.50;5034772;28;20179;-76
2022/01/20 02:34:10;;;;;;;12.70;2.30;;;;;;;3.34;100.00;102001.81;5022589;28;20484;-75
2022/01/20 02:36:38;;;;;;;14.40;3.50;;;;;;;3.53;100.00;102093.16;5035262;28;20216;-74
2022/01/20 02:39:27;;;;;;;22.10;4.70;;;;;;;3.16;100.00;101993.53;5035376;28;20460;-77
2022/01/20 02:44:53;;;;;;;16.33;4.23;;;;;;;3.79;100.00;102049.47;5037623;28;20893;-77
2022/01/20 02:47:30;;;;;;;18.60;4.20;;;;;;;3.80;100.00;102076.84;5036858;28;20480;-76
2022/01/20 02:49:56;;;;;;;23.53;4.07;;;;;;;3.83;100.00;102069.47;5037379;28;20422;-76
2022/01/20 02:52:23;;;;;;;22.67;4.17;;;;;;;3.88;100.00;102055.84;5039161;28;20521;-76
2022/01/20 02:54:50;;;;;;;19.00;4.17;;;;;;;3.60;100.00;102004.16;5036449;28;20219;-76
2022/01/20 02:57:16;;;;;;;18.27;3.97;;;;;;;3.98;100.00;102095.75;5036360;28;20617;-76
2022/01/20 02:59:42;;;;;;;24.43;4.67;;;;;;;3.50;100.00;101997.91;5036192;28;20742;-76
2022/01/20 03:02:09;;;;;;;23.03;4.00;;;;;;;3.74;100.00;102022.47;5030337;28;20534;-77
2022/01/20 03:04:35;;;;;;;21.67;3.60;;;;;;;4.18;100.00;102070.22;5034452;28;20187;-76
2022/01/20 03:07:00;;;;;;;17.00;4.53;;;;;;;3.90;100.00;102029.16;5040798;28;20442;-75
2022/01/20 03:09:26;;;;;;;20.00;4.13;;;;;;;4.15;100.00;102057.19;5040914;28;20440;-76
2022/01/20 03:11:52;;;;;;;15.80;4.47;;;;;;;4.17;100.00;102095.94;5038155;28;20195;-76
2022/01/20 03:14:17;;;;;;;14.07;3.17;;;;;;;4.26;100.00;102079.25;5039045;28;20671;-74
2022/01/20 03:16:45;;;;;;;16.93;3.50;;;;;;;4.39;100.00;102100.31;5025895;28;20208;-76
2022/01/20 03:19:11;;;;;;;14.00;3.30;;;;;;;4.41;100.00;102105.50;5038350;28;20196;-77
2022/01/20 03:21:37;;;;;;;19.70;2.87;;;;;;;3.04;100.00;101953.88;5040288;28;20472;-77
2022/01/20 03:24:04;;;;;;;13.63;2.70;;;;;;;4.22;100.00;102106.16;5022651;28;20856;-77
2022/01/20 03:26:30;;;;;;;12.87;2.63;;;;;;;3.69;100.00;102011.38;5034778;28;20508;-74
2022/01/20 03:28:57;;;;;;;23.23;2.80;;;;;;;2.92;100.00;101910.66;5036166;22;20498;-81
2022/01/20 03:31:22;;;;;;;18.20;3.20;;;;;;;4.30;100.00;102122.31;5026070;28;20695;-84
2022/01/20 03:33:48;;;;;;;20.53;2.97;;;;;;;4.11;100.00;102112.38;5012200;28;20439;-81
2022/01/20 03:36:13;;;;;;;14.93;3.17;;;;;;;2.95;100.00;101905.09;5028934;28;20184;-82
2022/01/20 03:38:38;;;;;;;14.77;3.73;;;;;;;3.68;100.00;102057.47;5028282;28;20200;-81
2022/01/20 03:41:04;;;;;;;9.57;2.70;;;;;;;3.56;100.00;102054.00;5028587;28;20280;-82
2022/01/20 03:43:29;;;;;;;10.50;2.10;;;;;;;3.36;100.00;102014.97;5029088;28;20238;-74
2022/01/20 03:45:57;;;;;;;14.53;3.23;;;;;;;3.38;100.00;101987.34;5027706;28;20180;-82
2022/01/20 03:48:26;;;;;;;16.60;3.60;;;;;;;2.72;100.00;101869.88;5027649;28;20254;-80
2022/01/20 03:51:00;;;;;;;19.73;3.90;;;;;;;3.29;100.00;101964.22;5029089;28;20447;-73
2022/01/20 03:53:33;;;;;;;15.07;3.70;;;;;;;4.22;100.00;102098.19;5027925;28;20415;-82
2022/01/20 03:56:11;;;;;;;15.27;3.00;;;;;;;4.27;100.00;102130.53;5027223;28;20415;-82
2022/01/20 03:58:42;;;;;;;12.80;3.10;;;;;;;4.30;100.00;102136.44;5028366;28;20494;-84
2022/01/20 04:01:07;;;;;;;9.40;2.70;;;;;;;3.13;100.00;101958.47;5018297;28;20557;-83
2022/01/20 04:03:33;;;;;;;11.33;2.40;;;;;;;3.47;100.00;102004.34;5010794;28;20434;-79
2022/01/20 04:05:59;;;;;;;10.40;2.50;;;;;;;3.72;100.00;102036.81;5027543;28;20255;-78
2022/01/20 04:08:39;;;;;;;18.67;3.17;;;;;;;4.25;100.00;102153.72;5027452;28;20551;-77
2022/01/20 04:11:10;;;;;;;10.90;2.50;;;;;;;4.21;100.00;102155.78;5027068;28;20502;-81
2022/01/20 04:13:36;;;;;;;10.60;2.80;;;;;;;3.20;100.00;102020.63;5021647;28;20439;-76
2022/01/20 04:16:19;;;;;;;14.10;3.07;;;;;;;3.54;100.00;102089.56;5027307;28;20946;-76
2022/01/20 04:18:56;;;;;;;9.60;2.43;;;;;;;3.16;100.00;101984.72;5029835;28;20204;-74
2022/01/20 04:21:27;;;;;;;11.00;2.50;;;;;;;3.79;100.00;102139.72;5026222;28;20403;-79
2022/01/20 04:23:53;;;;;;;8.33;2.00;;;;;;;3.38;100.00;102058.97;5027081;28;20415;-75
2022/01/20 04:26:19;;;;;;;9.57;2.30;;;;;;;2.86;100.00;101982.69;5028033;28;21649;-83
2022/01/20 04:28:45;;;;;;;8.20;1.70;;;;;;;3.51;100.00;102080.03;5009609;28;20539;-77
2022/01/20 04:31:11;;;;;;;6.80;1.63;;;;;;;2.25;100.00;101890.31;5027157;28;20510;-82
2022/01/20 04:33:37;;;;;;;5.67;1.70;;;;;;;3.69;100.00;102108.72;5027262;28;20466;-78
2022/01/20 04:36:04;;;;;;;7.33;1.83;;;;;;;3.82;100.00;102195.22;5027093;28;20657;-76
2022/01/20 04:38:30;;;;;;;9.83;2.50;;;;;;;3.07;100.00;102014.63;5027722;28;20230;-78
2022/01/20 04:40:55;;;;;;;9.07;2.27;;;;;;;3.76;100.00;102147.06;5008660;28;21045;-72
2022/01/20 04:43:21;;;;;;;5.97;2.47;;;;;;;3.80;100.00;102152.00;5026491;28;20188;-75
2022/01/20 04:45:58;;;;;;;13.83;2.10;;;;;;;3.70;100.00;102140.44;5026790;28;20214;-81
2022/01/20 04:57:20;;;;;;;4.57;1.30;;;;;;;1.13;100.00;101864.38;5026486;28;20446;-78
2022/01/20 04:59:47;;;;;;;8.30;1.80;;;;;;;3.16;100.00;102157.91;5027028;28;20469;-81
2022/01/20 05:02:13;;;;;;;8.47;2.23;;;;;;;3.29;100.00;102191.44;5008970;28;20431;-83
2022/01/20 05:04:39;;;;;;;9.67;2.13;;;;;;;1.31;100.00;101891.25;5011016;28;20514;-79
2022/01/20 05:07:06;;;;;;;5.90;1.73;;;;;;;3.09;100.00;102151.38;5026998;28;20204;-77
2022/01/20 05:09:32;;;;;;;7.00;2.07;;;;;;;2.75;100.00;102115.16;5027372;28;20431;-80
2022/01/20 05:12:01;;;;;;;10.47;2.53;;;;;;;2.21;100.00;102006.19;5026548;28;20427;-80
2022/01/20 05:14:27;;;;;;;12.73;2.17;;;;;;;2.12;100.00;101985.72;5019241;28;20427;-76
2022/01/20 05:16:55;;;;;;;10.60;2.40;;;;;;;3.52;100.00;102200.25;5027403;28;20477;-77
2022/01/20 05:19:24;;;;;;;9.80;2.70;;;;;;;3.05;100.00;102149.94;5026170;28;20474;-82
2022/01/20 05:21:49;;;;;;;9.07;2.80;;;;;;;3.26;100.00;102165.97;5026289;28;20916;-83
2022/01/20 05:24:15;;;;;;;10.20;1.90;;;;;;;2.58;100.00;102066.13;5003055;28;20471;-83
2022/01/20 05:26:41;;;;;;;15.53;2.50;;;;;;;3.42;100.00;102181.56;5025669;28;20184;-81
2022/01/20 05:29:06;;;;;;;13.77;3.17;;;;;;;3.38;100.00;102170.38;5007418;28;20451;-75
2022/01/20 05:31:32;;;;;;;11.63;3.07;;;;;;;2.58;100.00;102039.63;5026006;28;20193;-86
2022/01/20 05:33:57;;;;;;;11.13;3.10;;;;;;;3.21;100.00;102165.53;5025471;28;20193;-75
2022/01/20 05:36:23;;;;;;;10.93;2.53;;;;;;;3.36;100.00;102182.88;5019996;28;20635;-77
2022/01/20 05:38:49;;;;;;;12.30;3.00;;;;;;;3.44;100.00;102205.31;5023880;28;20443;-78
2022/01/20 05:41:15;;;;;;;11.00;2.67;;;;;;;2.63;100.00;102067.47;5025516;28;20422;-81
2022/01/20 05:43:41;;;;;;;16.77;3.57;;;;;;;3.06;100.00;102209.94;5024003;28;20664;-79
2022/01/20 05:46:08;;;;;;;8.87;2.23;;;;;;;1.46;100.00;101976.53;5023772;28;20506;-79
2022/01/20 05:48:35;;;;;;;5.80;1.73;;;;;;;1.68;100.00;102020.75;5026543;28;20279;-77
2022/01/20 05:51:03;;;;;;;8.20;1.87;;;;;;;2.00;100.00;102061.56;5025838;28;20411;-80
2022/01/20 05:53:29;;;;;;;6.43;1.40;;;;;;;2.12;100.00;102135.75;5025487;28;20526;-73
2022/01/20 05:55:55;;;;;;;5.73;1.70;;;;;;;3.20;100.00;102243.34;5026147;28;20510;-78
2022/01/20 05:58:20;;;;;;;9.00;1.80;;;;;;;3.20;100.00;102274.34;5024701;28;20485;-81
2022/01/20 06:00:46;;;;;;;5.57;1.80;;;;;;;1.78;100.00;102017.31;5009055;28;20256;-77
2022/01/20 06:06:15;;;;;;;8.70;2.40;;;;;;;3.43;100.00;102260.16;5023992;28;20442;-77
2022/01/20 06:09:10;;;;;;;9.80;2.87;;;;;;;3.42;100.00;102261.16;5027789;28;21123;-77
2022/01/20 06:12:02;;;;;;;12.13;3.10;;;;;;;3.58;100.00;102260.81;5019136;28;20428;-78
2022/01/20 06:15:14;;;;;;;13.53;2.80;;;;;;;3.48;100.00;102287.19;5025243;28;20415;-78
2022/01/20 06:17:49;;;;;;;14.30;2.87;;;;;;;3.09;100.00;102254.75;5026036;28;20550;-75
2022/01/20 06:20:15;;;;;;;9.77;2.00;;;;;;;2.76;100.00;102260.78;5024190;28;20488;-77
2022/01/20 06:22:41;;;;;;;9.30;3.03;;;;;;;3.06;100.00;102283.31;5025380;28;20899;-78
2022/01/20 06:25:07;;;;;;;7.57;2.23;;;;;;;3.01;100.00;102227.13;5025756;28;20179;-79
2022/01/20 06:27:33;;;;;;;8.30;2.07;;;;;;;2.77;100.00;102235.13;5025536;28;20461;-81
2022/01/20 06:29:59;;;;;;;12.13;2.67;;;;;;;2.55;100.00;102220.00;5026645;28;21014;-84
2022/01/20 06:32:25;;;;;;;9.77;2.53;;;;;;;2.36;100.00;102176.28;5023719;28;20433;-83
2022/01/20 06:34:50;;;;;;;10.70;3.00;;;;;;;2.24;100.00;102133.03;5026032;28;20259;-74
2022/01/20 06:37:16;;;;;;;13.27;2.93;;;;;;;2.17;100.00;102088.59;5026471;28;20196;-81
2022/01/20 06:39:41;;;;;;;13.90;2.50;;;;;;;1.94;100.00;102071.75;5026198;28;20354;-75
2022/01/20 06:42:07;;;;;;;13.20;2.73;;;;;;;2.94;100.00;102194.97;5011486;28;20177;-75
2022/01/20 06:44:32;;;;;;;9.53;2.47;;;;;;;1.69;100.00;101965.09;5029534;28;20237;-76
2022/01/20 06:46:58;;;;;;;9.50;2.70;;;;;;;1.67;100.00;102022.53;5030917;28;20700;-75
2022/01/20 06:49:24;;;;;;;13.17;2.80;;;;;;;3.38;100.00;102291.50;5028286;28;20308;-77
2022/01/20 06:51:49;;;;;;;15.47;2.90;;;;;;;2.61;100.00;102162.09;5028513;28;20184;-79
2022/01/20 06:54:15;;;;;;;8.97;2.17;;;;;;;2.66;100.00;102167.03;5005207;28;20176;-74
2022/01/20 06:56:41;;;;;;;6.50;2.20;;;;;;;1.81;100.00;102021.53;5006724;28;20609;-76
2022/01/20 06:59:11;;;;;;;13.00;2.57;;;;;;;3.07;100.00;102218.75;5029156;28;20459;-74
2022/01/20 07:01:37;;;;;;;10.93;2.10;;;;;;;1.86;100.00;102037.94;5012000;28;20784;-73
2022/01/20 07:04:03;;;;;;;10.50;2.27;;;;;;;3.03;100.00;102287.03;5031085;28;20419;-77
2022/01/20 07:06:29;;;;;;;10.13;2.20;;;;;;;3.04;100.00;102288.75;5013042;28;20961;-74
2022/01/20 07:08:54;;;;;;;6.60;2.00;;;;;;;3.47;100.00;102332.41;5028279;28;20196;-73
2022/01/20 07:11:20;;;;;;;15.27;2.43;;;;;;;2.18;100.00;102146.72;5027896;28;20199;-74
2022/01/20 07:13:45;;;;;;;10.13;2.17;;;;;;;3.09;100.00;102278.63;5026970;28;20184;-77
2022/01/20 07:16:10;;;;;;;11.00;3.07;;;;;;;2.55;100.00;102188.19;5027779;28;20172;-75
2022/01/20 07:18:36;;;;;;;6.47;1.80;;;;;;;3.54;100.00;102352.22;5028330;28;20279;-80
2022/01/20 07:21:10;;;;;;;9.43;2.23;;;;;;;3.69;100.00;102344.91;5028643;28;20664;-83
2022/01/20 07:23:35;;;;;;;9.53;2.00;;;;;;;1.91;100.00;102075.50;5028185;28;20187;-75
2022/01/20 07:26:01;;;;;;;7.20;1.87;;;;;;;3.58;100.00;102337.75;5028316;28;20431;-79
2022/01/20 07:28:27;;;;;;;15.23;3.20;;;;;;;2.49;100.00;102253.06;5028294;28;20201;-75
2022/01/20 07:30:52;;;;;;;14.43;3.03;;;;;;;2.25;100.00;102255.66;5012329;28;20430;-77
2022/01/20 07:33:19;;;;;;;4.70;1.77;;;;;;;2.25;100.00;102276.84;5028250;28;20395;-77
2022/01/20 07:35:45;;;;;;;10.10;2.93;;;;;;;2.18;100.00;102275.59;5028209;28;20247;-78
2022/01/20 07:38:11;;;;;;;9.57;2.40;;;;;;;2.85;100.00;102382.00;5026957;28;20538;-75
2022/01/20 07:40:37;;;;;;;6.57;1.97;;;;;;;2.11;100.00;102254.00;5027346;28;20732;-82
2022/01/20 07:43:02;;;;;;;6.73;1.73;;;;;;;1.07;100.00;102129.91;5028232;28;20184;-78
2022/01/20 07:45:28;;;;;;;12.73;2.07;;;;;;;2.80;100.00;102372.69;5011148;28;20357;-77
2022/01/20 07:47:54;;;;;;;12.80;2.67;;;;;;;2.34;100.00;102313.25;5027704;28;20200;-79
2022/01/20 07:50:20;;;;;;;8.30;2.47;;;;;;;3.06;100.00;102398.16;5028829;28;20374;-81
2022/01/20 07:52:47;;;;;;;11.70;2.10;;;;;;;0.96;100.00;102050.53;5026688;28;20338;-79
2022/01/20 07:55:13;;;;;;;9.30;2.30;;;;;;;3.14;100.00;102402.91;5027057;28;20426;-76
2022/01/20 07:57:39;;;;;;;9.40;1.70;;;;;;;3.30;100.00;102394.69;5029002;28;20443;-79
2022/01/20 08:00:06;;;;;;;10.30;2.53;;;;;;;2.44;100.00;102303.69;5028168;28;20455;-77
2022/01/20 08:02:32;;;;;;;8.20;2.43;;;;;;;2.92;100.00;102340.88;5027957;28;20184;-77
2022/01/20 08:04:57;;;;;;;9.23;2.03;;;;;;;2.46;100.00;102248.84;5010364;28;20434;-85
2022/01/20 08:07:23;;;;;;;13.80;2.63;;;;;;;2.68;100.00;102294.94;5021661;28;20451;-75
2022/01/20 08:09:54;;;;;;;10.10;2.50;;;;;;;1.89;100.00;102114.44;5027423;28;20679;-74
2022/01/20 08:12:19;;;;;;;16.10;2.10;;;;;;;3.10;100.00;102319.25;5027434;28;20195;-74
2022/01/20 08:14:45;;;;;;;8.77;2.50;;;;;;;3.09;100.00;102329.00;5029343;28;20883;-77
2022/01/20 08:17:11;;;;;;;10.37;2.73;;;;;;;3.43;100.00;102358.31;5027462;28;20212;-81
2022/01/20 08:19:36;;;;;;;6.47;1.70;;;;;;;3.39;100.00;102325.88;5027491;28;20208;-81
2022/01/20 08:22:02;;;;;;;6.70;2.40;;;;;;;2.82;100.00;102236.47;5025661;28;20578;-79
2022/01/20 08:24:28;;;;;;;11.33;2.80;;;;;;;3.04;100.00;102306.44;5028189;28;20234;-82
2022/01/20 08:26:53;;;;;;;8.90;2.07;;;;;;;1.86;100.00;102106.72;5027213;28;20505;-77
2022/01/20 08:29:19;;;;;;;11.50;2.60;;;;;;;3.43;100.00;102357.47;5028558;28;20224;-80
2022/01/20 08:31:45;;;;;;;11.80;2.40;;;;;;;2.76;100.00;102252.84;5026474;28;20180;-75
2022/01/20 08:34:11;;;;;;;11.20;3.00;;;;;;;3.65;100.00;102401.84;5025196;28;20233;-81
2022/01/20 08:36:36;;;;;;;11.30;2.23;;;;;;;3.56;100.00;102417.47;5026719;28;20915;-76
2022/01/20 08:39:04;;;;;;;11.43;2.70;;;;;;;2.71;100.00;102262.91;5027046;28;20203;-80
2022/01/20 08:41:29;;;;;;;11.37;2.47;;;;;;;3.19;100.00;102358.34;5026235;28;20184;-82
2022/01/20 08:43:55;;;;;;;9.40;2.50;;;;;;;3.14;100.00;102379.88;5027757;28;21634;-76
2022/01/20 08:46:21;;;;;;;11.03;2.60;;;;;;;1.25;100.00;102092.56;5027522;28;20192;-77
2022/01/20 08:48:47;;;;;;;9.20;2.00;;;;;;;3.10;100.00;102426.16;5026913;28;20196;-76
2022/01/20 08:51:13;;;;;;;11.63;3.40;;;;;;;1.13;100.00;102103.06;5020134;28;20442;-79
2022/01/20 08:53:39;;;;;;;10.47;2.40;;;;;;;2.99;100.00;102414.63;5026970;28;20426;-78
2022/01/20 08:56:04;;;;;;;9.80;2.40;;;;;;;2.96;100.00;102375.94;5027294;28;20544;-82
2022/01/20 08:58:30;;;;;;;13.70;2.83;;;;;;;2.53;100.00;102325.19;5027654;28;20196;-77
2022/01/20 09:00:55;;;;;;;8.97;2.33;;;;;;;2.21;100.00;102288.63;5026386;28;20205;-77
2022/01/20 09:03:22;;;;;;;8.10;2.30;;;;;;;3.05;100.00;102432.75;5026795;28;20227;-78
2022/01/20 09:05:48;;;;;;;8.57;2.70;;;;;;;3.15;100.00;102452.31;5026208;28;20172;-78
2022/01/20 09:08:14;;;;;;;12.43;2.40;;;;;;;2.79;100.00;102337.41;5027628;28;20453;-82
2022/01/20 09:10:43;;;;;;;12.80;3.10;;;;;;;3.49;100.00;102455.19;5010056;28;20424;-78
2022/01/20 09:15:56;;;;;;;9.00;2.47;;;;;;;2.78;100.00;102255.34;5024953;28;20915;-78
2022/01/20 09:18:24;;;;;;;13.67;2.67;;;;;;;2.03;100.00;102105.50;5027743;28;20470;-82
2022/01/20 09:20:49;;;;;;;9.90;2.30;;;;;;;3.81;100.00;102429.72;5025495;28;20976;-83
2022/01/20 09:23:16;;;;;;;20.33;3.17;;;;;;;3.39;100.00;102331.19;5026456;28;20431;-83
2022/01/20 09:25:42;;;;;;;11.40;2.70;;;;;;;3.17;100.00;102296.63;5007601;28;20214;-81
2022/01/20 09:28:08;;;;;;;7.73;2.13;;;;;;;3.73;100.00;102420.66;5014792;23;20518;-77
2022/01/20 09:30:36;;;;;;;10.60;2.70;;;;;;;4.05;100.00;102426.16;5002990;28;20427;-78
2022/01/20 09:35:35;;;;;;;14.23;2.60;;;;;;;3.26;100.00;102313.66;5021233;28;20509;-78
2022/01/20 09:38:01;;;;;;;11.83;3.03;;;;;;;3.93;100.00;102416.50;5014231;28;20948;-79
2022/01/20 09:40:30;;;;;;;9.30;2.70;;;;;;;4.13;100.00;102405.19;5005946;28;20428;-79
2022/01/20 09:42:56;;;;;;;8.37;2.23;;;;;;;3.79;100.00;102354.69;4986700;28;21357;-78
2022/01/20 09:45:21;;;;;;;9.50;1.97;;;;;;;3.59;100.00;102327.03;5006444;28;20498;-78
2022/01/20 09:47:48;;;;;;;9.70;2.43;;;;;;;3.83;100.00;102364.09;5004205;28;20253;-79
2022/01/20 09:50:19;;;;;;;9.53;1.93;;;;;;;4.39;100.00;102460.78;5005363;28;20987;-79
2022/01/20 09:52:45;;;;;;;9.77;2.50;;;;;;;4.02;100.00;102395.41;5004191;28;20197;-79
2022/01/20 09:55:10;;;;;;;7.57;2.53;;;;;;;4.14;100.00;102408.69;5003274;28;20502;-79
2022/01/20 09:57:36;;;;;;;7.40;2.10;;;;;;;3.79;100.00;102362.66;5006071;28;20452;-80
2022/01/20 10:00:06;;;;;;;8.67;1.80;;;;;;;4.48;100.00;102470.69;5006221;28;20294;-78
2022/01/20 10:02:31;;;;;;;11.53;3.07;;;;;;;4.08;100.00;102440.09;5005693;28;20183;-79
2022/01/20 10:04:57;;;;;;;11.70;2.83;;;;;;;3.43;100.00;102329.13;5005265;28;20436;-79
2022/01/20 10:07:22;;;;;;;15.23;3.17;;;;;;;4.36;100.00;102467.16;5005985;28;20205;-80
2022/01/20 10:09:49;;;;;;;6.93;2.23;;;;;;;4.34;100.00;102498.34;5006099;28;20256;-81
2022/01/20 10:12:17;;;;;;;7.23;2.33;;;;;;;3.94;100.00;102444.75;5005704;28;20177;-80
2022/01/20 10:14:43;;;;;;;6.67;1.50;;;;;;;4.13;100.00;102486.69;4988514;28;20435;-79
2022/01/20 10:17:24;;;;;;;8.93;1.70;;;;;;;4.23;100.00;102477.91;4986383;28;20506;-80
2022/01/20 10:19:55;;;;;;;6.73;2.17;;;;;;;4.35;100.00;102502.69;5005544;28;20204;-80
2022/01/20 10:22:23;;;;;;;11.53;2.77;;;;;;;4.49;100.00;102497.16;5003133;28;20420;-81
2022/01/20 10:25:04;;;;;;;14.53;2.47;;;;;;;4.40;100.00;102467.81;5004056;28;20435;-80
2022/01/20 10:27:32;;;;;;;10.90;2.47;;;;;;;4.47;100.00;102496.41;5004664;28;20517;-80
2022/01/20 10:30:00;;;;;;;10.80;2.07;;;;;;;4.49;100.00;102505.13;5004211;28;20528;-80
2022/01/20 10:32:27;;;;;;;6.23;1.70;;;;;;;4.49;100.00;102510.44;4988438;28;20435;-78
2022/01/20 10:35:04;;;;;;;10.93;2.33;;;;;;;4.59;100.00;102494.63;5004910;28;20431;-81
2022/01/20 10:37:30;;;;;;;12.07;2.27;;;;;;;4.27;100.00;102425.38;5004184;28;20619;-83
2022/01/20 10:40:08;;;;;;;8.63;2.20;;;;;;;4.26;100.00;102416.56;5004476;28;20474;-81
2022/01/20 10:42:41;;;;;;;9.10;2.27;;;;;;;4.89;100.00;102503.81;4982840;28;20436;-80
2022/01/20 10:45:08;;;;;;;10.80;2.83;;;;;;;4.98;100.00;102495.13;5003537;28;20432;-81
2022/01/20 10:47:36;;;;;;;14.80;3.00;;;;;;;5.07;100.00;102482.91;5003141;28;20940;-85
2022/01/20 10:50:09;;;;;;;6.20;2.57;;;;;;;4.76;100.00;102453.44;4989755;28;20808;-81
2022/01/20 10:52:36;;;;;;;11.57;2.20;;;;;;;4.89;100.00;102528.63;5003739;28;20424;-81
2022/01/20 10:55:03;;;;;;;13.80;2.10;;;;;;;3.68;100.00;102497.13;4986025;28;20428;-81
2022/01/20 10:57:31;;;;;;;7.50;1.80;;;;;;;3.83;100.00;102571.16;5003382;28;20963;-80
2022/01/20 11:00:05;;;;;;;9.00;2.23;;;;;;;3.24;100.00;102512.66;5006330;28;20468;-80
2022/01/20 11:02:31;;;;;;;14.43;2.70;;;;;;;2.51;100.00;102410.06;5004933;28;20489;-79
2022/01/20 11:04:58;;;;;;;14.00;3.00;;;;;;;3.37;100.00;102544.47;5004418;28;20507;-80
2022/01/20 11:07:24;;;;;;;10.13;2.27;;;;;;;3.36;100.00;102525.03;5004889;28;20209;-74
2022/01/20 11:09:59;;;;;;;21.87;3.17;;;;;;;3.57;100.00;102535.91;5005374;28;20432;-74
2022/01/20 11:12:24;;;;;;;8.80;2.37;;;;;;;3.95;100.00;102526.94;4986789;28;20498;-74
2022/01/20 11:14:51;;;;;;;11.23;2.50;;;;;;;4.16;100.00;102519.16;5004567;28;20753;-74
2022/01/20 11:17:25;;;;;;;8.40;2.50;;;;;;;4.51;100.00;102523.59;4988995;28;20208;-74
2022/01/20 11:19:50;;;;;;;8.70;2.13;;;;;;;4.73;100.00;102515.66;5004464;28;20467;-75
2022/01/20 11:22:19;;;;;;;11.60;2.93;;;;;;;4.62;100.00;102512.97;5004381;28;20787;-73
2022/01/20 11:24:55;;;;;;;8.53;2.13;;;;;;;4.66;100.00;102517.13;5003851;28;20177;-75
2022/01/20 11:27:20;;;;;;;12.70;2.33;;;;;;;4.71;100.00;102514.06;5006801;28;21085;-75
2022/01/20 11:29:50;;;;;;;9.20;2.37;;;;;;;4.73;100.00;102465.16;5006575;28;20420;-74
2022/01/20 11:32:26;;;;;;;12.40;2.73;;;;;;;4.95;100.00;102501.53;4991160;28;20654;-74
2022/01/20 11:35:01;;;;;;;13.00;2.60;;;;;;;4.85;100.00;102467.81;5007949;28;20424;-74
2022/01/20 11:37:32;;;;;;;12.00;2.87;;;;;;;5.36;100.00;102507.19;5008533;28;20435;-73
2022/01/20 11:40:17;;;;;;;10.10;2.90;;;;;;;5.08;100.00;102506.72;5009192;28;20463;-74
2022/01/20 11:43:10;;;;;;;7.40;2.30;;;;;;;4.15;100.00;102557.31;5005666;28;20422;-75
2022/01/20 11:45:39;;;;;;;7.30;1.90;;;;;;;3.56;100.00;102496.22;5007639;28;20408;-76
2022/01/20 11:48:31;;;;;;;14.23;2.60;;;;;;;3.59;100.00;102533.16;5008552;28;20465;-76
2022/01/20 11:51:08;;;;;;;4.87;1.33;;;;;;;3.42;100.00;102505.19;5003615;28;20519;-74
2022/01/20 11:53:41;;;;;;;7.63;2.07;;;;;;;3.29;100.00;102480.50;5007669;28;20431;-76
2022/01/20 11:56:08;;;;;;;12.17;3.63;;;;;;;3.47;100.00;102512.78;5004734;28;20417;-76
2022/01/20 11:58:33;;;;;;;6.53;2.20;;;;;;;3.84;100.00;102514.44;5007672;28;20979;-73
2022/01/20 12:01:06;;;;;;;7.27;1.80;;;;;;;4.34;100.00;102516.94;5005775;28;20436;-73
2022/01/20 12:03:33;;;;;;;15.53;2.50;;;;;;;4.21;100.00;102486.94;5005587;28;20621;-73
2022/01/20 12:06:12;;;;;;;8.00;2.23;;;;;;;4.52;100.00;102461.53;5006868;28;20432;-75
2022/01/20 12:09:01;;;;;;;7.43;1.90;;;;;;;5.02;100.00;102503.72;5007531;28;20432;-75
2022/01/20 12:11:45;;;;;;;7.40;1.80;;;;;;;4.91;100.00;102492.09;5005247;28;20540;-73
2022/01/20 12:14:12;;;;;;;9.30;2.40;;;;;;;5.15;100.00;102481.34;5006876;28;20427;-73
2022/01/20 12:16:40;;;;;;;9.07;1.73;;;;;;;5.24;100.00;102516.16;5005235;28;20424;-73
2022/01/20 12:19:08;;;;;;;10.37;1.83;;;;;;;5.15;100.00;102462.72;5008934;28;20468;-74
2022/01/20 12:21:36;;;;;;;7.83;2.63;;;;;;;5.21;100.00;102509.25;5005475;28;20431;-73
2022/01/20 12:24:01;;;;;;;7.90;2.40;;;;;;;4.37;100.00;102436.13;5008216;28;20446;-74
2022/01/20 12:26:31;;;;;;;11.83;2.10;;;;;;;4.71;100.00;102506.94;5007046;28;20429;-73
2022/01/20 12:29:08;;;;;;;11.37;1.77;;;;;;;4.33;100.00;102528.50;4985042;28;20748;-72
2022/01/20 12:31:45;;;;;;;12.53;2.50;;;;;;;3.93;100.00;102565.16;5003556;28;20451;-71